Terminal Aerodrome Forecast
Issued by NWS Louisville, KY

Home | Current Version | Previous Version | Text Only | Print | Product List | Glossary On
Versions: 1 2 3 4 5 6 7 8 9 10 11 12 13
000
FTUS43 KLMK 011700
TAFBWG
TAF
KBWG 011725Z 0118/0218 VRB04KT 3SM -RA BKN015 OVC025
     FM020100 29004KT 5SM -SHRA BR OVC008
     FM020600 32005KT 6SM -DZ VCSH BKN012
     FM021100 03006KT P6SM BKN022
     FM021700 05008KT P6SM SCT035=

USA.gov is the U.S. government's official web portal to all federal, state and local government web resources and services.